sensor_id;sensor_type;location;lat;lon;timestamp;temperature;humidity
17845;DHT22;9047;53.486;10.218;2023-05-10T00:01:10;13.60;92.40
17845;DHT22;9047;53.486;10.218;2023-05-10T00:03:38;13.60;92.60
17845;DHT22;9047;53.486;10.218;2023-05-10T00:06:05;13.60;92.60
17845;DHT22;9047;53.486;10.218;2023-05-10T00:08:32;13.60;92.70
17845;DHT22;9047;53.486;10.218;2023-05-10T00:10:59;13.60;92.70
17845;DHT22;9047;53.486;10.218;2023-05-10T00:13:26;13.60;92.70
17845;DHT22;9047;53.486;10.218;2023-05-10T00:15:53;13.50;92.80
17845;DHT22;9047;53.486;10.218;2023-05-10T00:18:20;13.50;92.90
17845;DHT22;9047;53.486;10.218;2023-05-10T00:20:51;13.60;92.90
17845;DHT22;9047;53.486;10.218;2023-05-10T00:23:21;13.60;93.00
17845;DHT22;9047;53.486;10.218;2023-05-10T00:25:47;13.60;93.00
17845;DHT22;9047;53.486;10.218;2023-05-10T00:28:14;13.60;93.00
17845;DHT22;9047;53.486;10.218;2023-05-10T00:30:41;13.50;93.10
17845;DHT22;9047;53.486;10.218;2023-05-10T00:33:09;13.50;93.20
17845;DHT22;9047;53.486;10.218;2023-05-10T00:35:37;13.40;93.10
17845;DHT22;9047;53.486;10.218;2023-05-10T00:38:06;13.40;93.20
17845;DHT22;9047;53.486;10.218;2023-05-10T00:40:35;13.40;93.20
17845;DHT22;9047;53.486;10.218;2023-05-10T00:43:02;13.40;93.40
17845;DHT22;9047;53.486;10.218;2023-05-10T00:45:29;13.30;93.40
17845;DHT22;9047;53.486;10.218;2023-05-10T00:47:56;13.40;93.40
17845;DHT22;9047;53.486;10.218;2023-05-10T00:50:25;13.30;93.50
17845;DHT22;9047;53.486;10.218;2023-05-10T00:52:52;13.30;93.60
17845;DHT22;9047;53.486;10.218;2023-05-10T00:55:21;13.30;93.70
17845;DHT22;9047;53.486;10.218;2023-05-10T00:57:48;13.30;93.90
17845;DHT22;9047;53.486;10.218;2023-05-10T01:00:17;13.20;93.70
17845;DHT22;9047;53.486;10.218;2023-05-10T01:02:44;13.20;93.80
17845;DHT22;9047;53.486;10.218;2023-05-10T01:05:14;13.20;93.90
17845;DHT22;9047;53.486;10.218;2023-05-10T01:07:52;13.20;94.00
17845;DHT22;9047;53.486;10.218;2023-05-10T01:10:22;13.20;94.10
17845;DHT22;9047;53.486;10.218;2023-05-10T01:12:51;13.10;94.20
17845;DHT22;9047;53.486;10.218;2023-05-10T01:15:22;13.10;94.20
17845;DHT22;9047;53.486;10.218;2023-05-10T01:17:49;13.00;94.30
17845;DHT22;9047;53.486;10.218;2023-05-10T01:20:16;13.00;94.40
17845;DHT22;9047;53.486;10.218;2023-05-10T01:29:10;12.90;94.60
17845;DHT22;9047;53.486;10.218;2023-05-10T01:34:51;12.80;94.90
17845;DHT22;9047;53.486;10.218;2023-05-10T01:37:28;12.70;95.00
17845;DHT22;9047;53.486;10.218;2023-05-10T01:40:06;12.80;95.20
17845;DHT22;9047;53.486;10.218;2023-05-10T01:42:40;12.70;95.30
17845;DHT22;9047;53.486;10.218;2023-05-10T01:45:16;12.70;95.60
17845;DHT22;9047;53.486;10.218;2023-05-10T01:47:50;12.60;95.50
17845;DHT22;9047;53.486;10.218;2023-05-10T01:50:24;12.60;95.60
17845;DHT22;9047;53.486;10.218;2023-05-10T01:52:55;12.60;95.70
17845;DHT22;9047;53.486;10.218;2023-05-10T01:55:25;12.50;95.80
17845;DHT22;9047;53.486;10.218;2023-05-10T01:58:10;12.50;95.80
17845;DHT22;9047;53.486;10.218;2023-05-10T02:00:41;12.40;95.90
17845;DHT22;9047;53.486;10.218;2023-05-10T02:03:10;12.40;96.00
17845;DHT22;9047;53.486;10.218;2023-05-10T02:05:40;12.40;96.20
17845;DHT22;9047;53.486;10.218;2023-05-10T02:08:08;12.40;96.30
17845;DHT22;9047;53.486;10.218;2023-05-10T02:10:36;12.40;96.20
17845;DHT22;9047;53.486;10.218;2023-05-10T02:13:05;12.40;96.20
17845;DHT22;9047;53.486;10.218;2023-05-10T02:15:34;12.40;96.30
17845;DHT22;9047;53.486;10.218;2023-05-10T02:18:02;12.40;96.30
17845;DHT22;9047;53.486;10.218;2023-05-10T02:20:31;12.40;96.50
17845;DHT22;9047;53.486;10.218;2023-05-10T02:23:01;12.30;96.50
17845;DHT22;9047;53.486;10.218;2023-05-10T02:25:28;12.30;96.60
17845;DHT22;9047;53.486;10.218;2023-05-10T02:27:57;12.30;96.80
17845;DHT22;9047;53.486;10.218;2023-05-10T02:30:24;12.20;96.80
17845;DHT22;9047;53.486;10.218;2023-05-10T02:32:52;12.20;96.80
17845;DHT22;9047;53.486;10.218;2023-05-10T02:35:20;12.20;96.90
17845;DHT22;9047;53.486;10.218;2023-05-10T02:37:48;12.20;97.10
17845;DHT22;9047;53.486;10.218;2023-05-10T02:40:16;12.10;97.20
17845;DHT22;9047;53.486;10.218;2023-05-10T02:42:44;12.10;97.10
17845;DHT22;9047;53.486;10.218;2023-05-10T02:45:14;12.10;97.20
17845;DHT22;9047;53.486;10.218;2023-05-10T02:47:42;12.10;97.30
17845;DHT22;9047;53.486;10.218;2023-05-10T02:50:12;12.10;97.40
17845;DHT22;9047;53.486;10.218;2023-05-10T02:52:40;12.10;97.30
17845;DHT22;9047;53.486;10.218;2023-05-10T02:55:11;12.10;97.50
17845;DHT22;9047;53.486;10.218;2023-05-10T02:57:43;12.10;97.60
17845;DHT22;9047;53.486;10.218;2023-05-10T03:00:15;12.10;97.70
17845;DHT22;9047;53.486;10.218;2023-05-10T03:02:41;12.00;97.80
17845;DHT22;9047;53.486;10.218;2023-05-10T03:05:08;12.00;97.90
17845;DHT22;9047;53.486;10.218;2023-05-10T03:07:35;12.00;97.80
17845;DHT22;9047;53.486;10.218;2023-05-10T03:10:03;12.00;98.00
17845;DHT22;9047;53.486;10.218;2023-05-10T03:12:41;12.00;98.20
17845;DHT22;9047;53.486;10.218;2023-05-10T03:15:19;12.00;98.00
17845;DHT22;9047;53.486;10.218;2023-05-10T03:17:54;11.90;98.10
17845;DHT22;9047;53.486;10.218;2023-05-10T03:20:25;11.90;98.20
17845;DHT22;9047;53.486;10.218;2023-05-10T03:23:04;11.90;98.20
17845;DHT22;9047;53.486;10.218;2023-05-10T03:25:31;11.90;98.40
17845;DHT22;9047;53.486;10.218;2023-05-10T03:28:01;12.00;98.30
17845;DHT22;9047;53.486;10.218;2023-05-10T03:30:28;12.00;98.30
17845;DHT22;9047;53.486;10.218;2023-05-10T03:32:56;12.00;98.40
17845;DHT22;9047;53.486;10.218;2023-05-10T03:35:23;12.00;98.40
17845;DHT22;9047;53.486;10.218;2023-05-10T03:37:50;12.00;98.50
17845;DHT22;9047;53.486;10.218;2023-05-10T03:40:17;12.00;98.50
17845;DHT22;9047;53.486;10.218;2023-05-10T03:42:44;12.00;98.60
17845;DHT22;9047;53.486;10.218;2023-05-10T03:45:12;11.90;98.70
17845;DHT22;9047;53.486;10.218;2023-05-10T03:47:41;11.90;98.70
17845;DHT22;9047;53.486;10.218;2023-05-10T03:50:09;11.90;99.10
17845;DHT22;9047;53.486;10.218;2023-05-10T03:52:37;11.90;98.90
17845;DHT22;9047;53.486;10.218;2023-05-10T03:55:06;11.90;98.90
17845;DHT22;9047;53.486;10.218;2023-05-10T03:57:33;11.90;99.00
17845;DHT22;9047;53.486;10.218;2023-05-10T04:00:01;11.90;99.10
17845;DHT22;9047;53.486;10.218;2023-05-10T04:02:29;12.00;99.00
17845;DHT22;9047;53.486;10.218;2023-05-10T04:04:56;12.10;99.00
17845;DHT22;9047;53.486;10.218;2023-05-10T04:07:23;12.00;99.10
17845;DHT22;9047;53.486;10.218;2023-05-10T04:09:50;12.10;99.00
17845;DHT22;9047;53.486;10.218;2023-05-10T04:12:17;12.10;98.90
17845;DHT22;9047;53.486;10.218;2023-05-10T04:14:47;12.10;99.00
17845;DHT22;9047;53.486;10.218;2023-05-10T04:17:15;12.10;99.20
17845;DHT22;9047;53.486;10.218;2023-05-10T04:19:43;12.10;99.20
17845;DHT22;9047;53.486;10.218;2023-05-10T04:22:10;12.10;99.30
17845;DHT22;9047;53.486;10.218;2023-05-10T04:24:38;12.10;99.20
17845;DHT22;9047;53.486;10.218;2023-05-10T04:27:05;12.20;99.30
17845;DHT22;9047;53.486;10.218;2023-05-10T04:29:33;12.10;99.10
17845;DHT22;9047;53.486;10.218;2023-05-10T04:31:59;12.20;99.20
17845;DHT22;9047;53.486;10.218;2023-05-10T04:34:26;12.20;99.70
17845;DHT22;9047;53.486;10.218;2023-05-10T04:36:58;12.20;99.30
17845;DHT22;9047;53.486;10.218;2023-05-10T04:39:28;12.20;99.30
17845;DHT22;9047;53.486;10.218;2023-05-10T04:41:54;12.20;99.30
17845;DHT22;9047;53.486;10.218;2023-05-10T04:44:21;12.30;99.30
17845;DHT22;9047;53.486;10.218;2023-05-10T04:46:49;12.30;99.40
17845;DHT22;9047;53.486;10.218;2023-05-10T04:49:16;12.30;99.40
17845;DHT22;9047;53.486;10.218;2023-05-10T04:51:44;12.30;99.50
17845;DHT22;9047;53.486;10.218;2023-05-10T04:54:12;12.30;99.50
17845;DHT22;9047;53.486;10.218;2023-05-10T04:56:39;12.30;99.40
17845;DHT22;9047;53.486;10.218;2023-05-10T04:59:06;12.30;99.50
17845;DHT22;9047;53.486;10.218;2023-05-10T05:01:39;12.30;99.60
17845;DHT22;9047;53.486;10.218;2023-05-10T05:04:08;12.40;99.70
17845;DHT22;9047;53.486;10.218;2023-05-10T05:06:38;12.50;99.70
17845;DHT22;9047;53.486;10.218;2023-05-10T05:09:23;12.50;99.50
17845;DHT22;9047;53.486;10.218;2023-05-10T05:11:50;12.60;99.60
17845;DHT22;9047;53.486;10.218;2023-05-10T05:14:18;12.70;99.60
17845;DHT22;9047;53.486;10.218;2023-05-10T05:16:47;12.80;99.50
17845;DHT22;9047;53.486;10.218;2023-05-10T05:19:14;13.00;99.40
17845;DHT22;9047;53.486;10.218;2023-05-10T05:21:43;13.00;99.30
17845;DHT22;9047;53.486;10.218;2023-05-10T05:24:11;13.10;99.20
17845;DHT22;9047;53.486;10.218;2023-05-10T05:26:39;13.10;99.00
17845;DHT22;9047;53.486;10.218;2023-05-10T05:29:07;13.30;99.00
17845;DHT22;9047;53.486;10.218;2023-05-10T05:31:34;13.40;99.00
17845;DHT22;9047;53.486;10.218;2023-05-10T05:34:00;13.50;99.20
17845;DHT22;9047;53.486;10.218;2023-05-10T05:36:27;13.50;98.80
17845;DHT22;9047;53.486;10.218;2023-05-10T05:38:54;13.60;98.80
17845;DHT22;9047;53.486;10.218;2023-05-10T05:41:21;13.70;98.70
17845;DHT22;9047;53.486;10.218;2023-05-10T05:43:54;13.70;98.80
17845;DHT22;9047;53.486;10.218;2023-05-10T05:46:24;13.80;98.40
17845;DHT22;9047;53.486;10.218;2023-05-10T05:48:51;13.90;98.30
17845;DHT22;9047;53.486;10.218;2023-05-10T05:51:18;13.90;98.10
17845;DHT22;9047;53.486;10.218;2023-05-10T05:53:46;14.10;97.90
17845;DHT22;9047;53.486;10.218;2023-05-10T05:56:13;14.00;98.00
17845;DHT22;9047;53.486;10.218;2023-05-10T05:58:40;14.10;98.00
17845;DHT22;9047;53.486;10.218;2023-05-10T06:01:10;14.20;98.10
17845;DHT22;9047;53.486;10.218;2023-05-10T06:03:37;14.40;97.80
17845;DHT22;9047;53.486;10.218;2023-05-10T06:06:04;14.50;97.80
17845;DHT22;9047;53.486;10.218;2023-05-10T06:08:31;14.80;97.30
17845;DHT22;9047;53.486;10.218;2023-05-10T06:10:59;15.10;97.10
17845;DHT22;9047;53.486;10.218;2023-05-10T06:13:26;15.40;96.50
17845;DHT22;9047;53.486;10.218;2023-05-10T06:15:57;15.60;95.90
17845;DHT22;9047;53.486;10.218;2023-05-10T06:18:26;15.80;95.70
17845;DHT22;9047;53.486;10.218;2023-05-10T06:20:54;16.00;95.20
17845;DHT22;9047;53.486;10.218;2023-05-10T06:23:20;16.40;95.40
17845;DHT22;9047;53.486;10.218;2023-05-10T06:26:02;16.90;94.90
17845;DHT22;9047;53.486;10.218;2023-05-10T06:28:29;17.50;93.80
17845;DHT22;9047;53.486;10.218;2023-05-10T06:31:00;18.00;92.90
17845;DHT22;9047;53.486;10.218;2023-05-10T06:33:28;18.40;92.60
17845;DHT22;9047;53.486;10.218;2023-05-10T06:35:57;18.90;92.30
17845;DHT22;9047;53.486;10.218;2023-05-10T06:38:27;19.50;91.60
17845;DHT22;9047;53.486;10.218;2023-05-10T06:40:54;20.30;90.40
17845;DHT22;9047;53.486;10.218;2023-05-10T06:43:21;20.70;89.50
17845;DHT22;9047;53.486;10.218;2023-05-10T06:45:49;21.00;87.80
17845;DHT22;9047;53.486;10.218;2023-05-10T06:48:16;20.80;86.70
17845;DHT22;9047;53.486;10.218;2023-05-10T06:50:44;20.20;88.10
17845;DHT22;9047;53.486;10.218;2023-05-10T06:53:11;19.80;89.10
17845;DHT22;9047;53.486;10.218;2023-05-10T06:55:39;19.60;89.60
17845;DHT22;9047;53.486;10.218;2023-05-10T06:58:05;19.50;90.00
17845;DHT22;9047;53.486;10.218;2023-05-10T07:00:32;19.60;90.20
17845;DHT22;9047;53.486;10.218;2023-05-10T07:02:59;19.70;89.80
17845;DHT22;9047;53.486;10.218;2023-05-10T07:05:26;19.90;89.80
17845;DHT22;9047;53.486;10.218;2023-05-10T07:07:56;20.00;89.50
17845;DHT22;9047;53.486;10.218;2023-05-10T07:10:22;20.00;90.00
17845;DHT22;9047;53.486;10.218;2023-05-10T07:12:49;19.90;89.80
17845;DHT22;9047;53.486;10.218;2023-05-10T07:15:16;19.80;90.00
17845;DHT22;9047;53.486;10.218;2023-05-10T07:17:43;19.90;90.20
17845;DHT22;9047;53.486;10.218;2023-05-10T07:20:14;20.10;89.60
17845;DHT22;9047;53.486;10.218;2023-05-10T07:22:41;20.40;89.10
17845;DHT22;9047;53.486;10.218;2023-05-10T07:25:12;20.60;88.60
17845;DHT22;9047;53.486;10.218;2023-05-10T07:27:39;20.60;89.10
17845;DHT22;9047;53.486;10.218;2023-05-10T07:30:09;20.70;88.60
17845;DHT22;9047;53.486;10.218;2023-05-10T07:32:36;20.60;88.30
17845;DHT22;9047;53.486;10.218;2023-05-10T07:35:05;20.50;87.40
17845;DHT22;9047;53.486;10.218;2023-05-10T07:37:32;20.40;87.40
17845;DHT22;9047;53.486;10.218;2023-05-10T07:39:59;20.40;88.10
17845;DHT22;9047;53.486;10.218;2023-05-10T07:42:27;20.20;88.30
17845;DHT22;9047;53.486;10.218;2023-05-10T07:44:54;19.90;89.00
17845;DHT22;9047;53.486;10.218;2023-05-10T07:47:20;19.70;89.20
17845;DHT22;9047;53.486;10.218;2023-05-10T07:49:47;19.50;90.30
17845;DHT22;9047;53.486;10.218;2023-05-10T07:52:14;19.40;90.50
17845;DHT22;9047;53.486;10.218;2023-05-10T07:54:41;19.20;90.90
17845;DHT22;9047;53.486;10.218;2023-05-10T07:57:08;19.20;90.60
17845;DHT22;9047;53.486;10.218;2023-05-10T07:59:38;19.10;91.00
17845;DHT22;9047;53.486;10.218;2023-05-10T08:02:06;19.20;91.00
17845;DHT22;9047;53.486;10.218;2023-05-10T08:04:34;19.10;91.00
17845;DHT22;9047;53.486;10.218;2023-05-10T08:07:02;19.10;91.00
17845;DHT22;9047;53.486;10.218;2023-05-10T08:09:29;19.00;90.80
17845;DHT22;9047;53.486;10.218;2023-05-10T08:11:59;18.90;90.90
17845;DHT22;9047;53.486;10.218;2023-05-10T08:14:28;18.80;91.20
17845;DHT22;9047;53.486;10.218;2023-05-10T08:16:56;18.70;91.30
17845;DHT22;9047;53.486;10.218;2023-05-10T08:19:23;18.40;91.60
17845;DHT22;9047;53.486;10.218;2023-05-10T08:21:50;18.30;92.10
17845;DHT22;9047;53.486;10.218;2023-05-10T08:24:17;18.30;92.40
17845;DHT22;9047;53.486;10.218;2023-05-10T08:26:43;18.40;92.40
17845;DHT22;9047;53.486;10.218;2023-05-10T08:29:13;18.50;92.00
17845;DHT22;9047;53.486;10.218;2023-05-10T08:31:40;18.60;91.90
17845;DHT22;9047;53.486;10.218;2023-05-10T08:34:08;18.80;92.40
17845;DHT22;9047;53.486;10.218;2023-05-10T08:36:35;18.90;91.90
17845;DHT22;9047;53.486;10.218;2023-05-10T08:39:02;18.80;91.50
17845;DHT22;9047;53.486;10.218;2023-05-10T08:41:30;18.80;91.70
17845;DHT22;9047;53.486;10.218;2023-05-10T08:44:03;18.80;92.00
17845;DHT22;9047;53.486;10.218;2023-05-10T08:46:31;18.90;92.30
17845;DHT22;9047;53.486;10.218;2023-05-10T08:49:02;19.10;92.20
17845;DHT22;9047;53.486;10.218;2023-05-10T08:51:33;19.20;91.80
17845;DHT22;9047;53.486;10.218;2023-05-10T08:54:03;19.30;92.00
17845;DHT22;9047;53.486;10.218;2023-05-10T08:56:30;19.60;92.20
17845;DHT22;9047;53.486;10.218;2023-05-10T08:58:57;19.60;91.60
17845;DHT22;9047;53.486;10.218;2023-05-10T09:01:28;19.70;91.80
17845;DHT22;9047;53.486;10.218;2023-05-10T09:03:58;19.70;91.70
17845;DHT22;9047;53.486;10.218;2023-05-10T09:06:25;19.60;91.20
17845;DHT22;9047;53.486;10.218;2023-05-10T09:08:53;19.40;91.70
17845;DHT22;9047;53.486;10.218;2023-05-10T09:11:23;19.20;92.20
17845;DHT22;9047;53.486;10.218;2023-05-10T09:13:51;19.10;92.20
17845;DHT22;9047;53.486;10.218;2023-05-10T09:16:18;19.00;92.30
17845;DHT22;9047;53.486;10.218;2023-05-10T09:18:45;19.00;92.60
17845;DHT22;9047;53.486;10.218;2023-05-10T09:21:12;18.90;92.60
17845;DHT22;9047;53.486;10.218;2023-05-10T09:23:42;19.00;92.90
17845;DHT22;9047;53.486;10.218;2023-05-10T09:26:11;19.00;93.20
17845;DHT22;9047;53.486;10.218;2023-05-10T09:28:51;19.00;92.90
17845;DHT22;9047;53.486;10.218;2023-05-10T09:31:18;19.00;92.60
17845;DHT22;9047;53.486;10.218;2023-05-10T09:33:45;18.70;92.70
17845;DHT22;9047;53.486;10.218;2023-05-10T09:36:13;18.50;92.90
17845;DHT22;9047;53.486;10.218;2023-05-10T09:38:46;18.30;93.30
17845;DHT22;9047;53.486;10.218;2023-05-10T09:41:19;18.10;93.90
17845;DHT22;9047;53.486;10.218;2023-05-10T09:43:46;17.80;94.30
17845;DHT22;9047;53.486;10.218;2023-05-10T09:46:14;17.60;94.70
17845;DHT22;9047;53.486;10.218;2023-05-10T09:48:43;17.50;95.10
17845;DHT22;9047;53.486;10.218;2023-05-10T09:51:10;17.40;95.40
17845;DHT22;9047;53.486;10.218;2023-05-10T09:53:37;17.40;95.70
17845;DHT22;9047;53.486;10.218;2023-05-10T09:56:04;17.40;96.20
17845;DHT22;9047;53.486;10.218;2023-05-10T09:58:36;17.30;96.50
17845;DHT22;9047;53.486;10.218;2023-05-10T10:01:03;17.30;96.70
17845;DHT22;9047;53.486;10.218;2023-05-10T10:03:30;17.20;97.20
17845;DHT22;9047;53.486;10.218;2023-05-10T10:05:57;17.10;97.80
17845;DHT22;9047;53.486;10.218;2023-05-10T10:08:24;17.00;98.00
17845;DHT22;9047;53.486;10.218;2023-05-10T10:10:51;17.00;98.40
17845;DHT22;9047;53.486;10.218;2023-05-10T10:13:18;17.00;98.80
17845;DHT22;9047;53.486;10.218;2023-05-10T10:15:47;17.00;99.10
17845;DHT22;9047;53.486;10.218;2023-05-10T10:18:19;17.00;99.50
17845;DHT22;9047;53.486;10.218;2023-05-10T10:20:49;16.90;99.90
17845;DHT22;9047;53.486;10.218;2023-05-10T10:23:16;16.80;99.90
17845;DHT22;9047;53.486;10.218;2023-05-10T10:25:43;16.70;99.90
17845;DHT22;9047;53.486;10.218;2023-05-10T10:28:24;16.60;99.90
17845;DHT22;9047;53.486;10.218;2023-05-10T10:30:55;16.60;99.90
17845;DHT22;9047;53.486;10.218;2023-05-10T10:33:36;16.40;99.90
17845;DHT22;9047;53.486;10.218;2023-05-10T10:36:05;16.40;99.90
17845;DHT22;9047;53.486;10.218;2023-05-10T10:38:37;16.20;99.90
17845;DHT22;9047;53.486;10.218;2023-05-10T10:41:10;16.00;99.90
17845;DHT22;9047;53.486;10.218;2023-05-10T10:43:37;15.90;99.90
17845;DHT22;9047;53.486;10.218;2023-05-10T10:46:12;15.70;99.90
17845;DHT22;9047;53.486;10.218;2023-05-10T10:48:40;15.60;99.90
17845;DHT22;9047;53.486;10.218;2023-05-10T10:51:07;15.50;99.90
17845;DHT22;9047;53.486;10.218;2023-05-10T10:53:33;15.50;99.90
17845;DHT22;9047;53.486;10.218;2023-05-10T10:56:07;15.50;99.90
17845;DHT22;9047;53.486;10.218;2023-05-10T10:58:35;15.40;99.90
17845;DHT22;9047;53.486;10.218;2023-05-10T11:01:14;15.40;99.90
17845;DHT22;9047;53.486;10.218;2023-05-10T11:03:54;15.50;99.90
17845;DHT22;9047;53.486;10.218;2023-05-10T11:06:41;15.60;99.90
17845;DHT22;9047;53.486;10.218;2023-05-10T11:09:09;15.70;99.90
17845;DHT22;9047;53.486;10.218;2023-05-10T11:11:48;15.70;99.90
17845;DHT22;9047;53.486;10.218;2023-05-10T11:14:20;15.70;99.90
17845;DHT22;9047;53.486;10.218;2023-05-10T11:16:48;15.70;99.90
17845;DHT22;9047;53.486;10.218;2023-05-10T11:19:16;15.80;99.90
17845;DHT22;9047;53.486;10.218;2023-05-10T11:21:47;15.70;99.90
17845;DHT22;9047;53.486;10.218;2023-05-10T11:24:15;15.70;99.90
17845;DHT22;9047;53.486;10.218;2023-05-10T11:26:42;15.60;99.90
17845;DHT22;9047;53.486;10.218;2023-05-10T11:29:09;15.70;99.90
17845;DHT22;9047;53.486;10.218;2023-05-10T11:31:42;15.70;99.90
17845;DHT22;9047;53.486;10.218;2023-05-10T11:34:10;15.70;99.90
17845;DHT22;9047;53.486;10.218;2023-05-10T11:36:38;15.80;99.90
17845;DHT22;9047;53.486;10.218;2023-05-10T11:39:05;15.90;99.90
17845;DHT22;9047;53.486;10.218;2023-05-10T11:41:32;15.90;99.90
17845;DHT22;9047;53.486;10.218;2023-05-10T11:43:59;16.00;99.90
17845;DHT22;9047;53.486;10.218;2023-05-10T11:46:27;16.30;99.90
17845;DHT22;9047;53.486;10.218;2023-05-10T11:48:57;16.50;99.90
17845;DHT22;9047;53.486;10.218;2023-05-10T11:51:27;16.60;99.90
17845;DHT22;9047;53.486;10.218;2023-05-10T11:53:57;16.90;99.90
17845;DHT22;9047;53.486;10.218;2023-05-10T11:56:24;17.00;99.90
17845;DHT22;9047;53.486;10.218;2023-05-10T11:58:56;17.10;99.90
17845;DHT22;9047;53.486;10.218;2023-05-10T12:01:23;17.20;99.90
17845;DHT22;9047;53.486;10.218;2023-05-10T12:03:54;17.10;99.90
17845;DHT22;9047;53.486;10.218;2023-05-10T12:06:28;17.10;99.90
17845;DHT22;9047;53.486;10.218;2023-05-10T12:08:58;17.20;99.90
17845;DHT22;9047;53.486;10.218;2023-05-10T12:11:29;17.20;99.90
17845;DHT22;9047;53.486;10.218;2023-05-10T12:13:56;17.20;99.90
17845;DHT22;9047;53.486;10.218;2023-05-10T12:16:24;17.30;99.90
17845;DHT22;9047;53.486;10.218;2023-05-10T12:18:56;17.30;99.90
17845;DHT22;9047;53.486;10.218;2023-05-10T12:21:24;17.40;99.90
17845;DHT22;9047;53.486;10.218;2023-05-10T12:23:53;17.40;99.90
17845;DHT22;9047;53.486;10.218;2023-05-10T12:26:22;17.40;99.90
17845;DHT22;9047;53.486;10.218;2023-05-10T12:28:53;17.30;99.90
17845;DHT22;9047;53.486;10.218;2023-05-10T12:31:20;17.20;99.90
17845;DHT22;9047;53.486;10.218;2023-05-10T12:33:47;17.10;99.90
17845;DHT22;9047;53.486;10.218;2023-05-10T12:36:16;17.10;99.90
17845;DHT22;9047;53.486;10.218;2023-05-10T12:38:44;17.00;99.90
17845;DHT22;9047;53.486;10.218;2023-05-10T12:41:16;17.10;99.90
17845;DHT22;9047;53.486;10.218;2023-05-10T12:43:44;17.20;99.90
17845;DHT22;9047;53.486;10.218;2023-05-10T12:46:13;17.40;99.90
17845;DHT22;9047;53.486;10.218;2023-05-10T12:48:41;17.40;99.90
17845;DHT22;9047;53.486;10.218;2023-05-10T12:51:17;17.70;99.90
17845;DHT22;9047;53.486;10.218;2023-05-10T12:53:47;17.80;99.90
17845;DHT22;9047;53.486;10.218;2023-05-10T12:56:17;17.90;99.90
17845;DHT22;9047;53.486;10.218;2023-05-10T12:58:43;18.00;99.90
17845;DHT22;9047;53.486;10.218;2023-05-10T13:01:13;18.00;99.90
17845;DHT22;9047;53.486;10.218;2023-05-10T13:03:40;18.00;99.90
17845;DHT22;9047;53.486;10.218;2023-05-10T13:06:08;17.90;99.90
17845;DHT22;9047;53.486;10.218;2023-05-10T13:08:35;17.90;99.90
17845;DHT22;9047;53.486;10.218;2023-05-10T13:11:02;18.00;99.90
17845;DHT22;9047;53.486;10.218;2023-05-10T13:13:31;18.00;99.90
17845;DHT22;9047;53.486;10.218;2023-05-10T13:15:58;18.00;99.90
17845;DHT22;9047;53.486;10.218;2023-05-10T13:18:25;17.90;99.90
17845;DHT22;9047;53.486;10.218;2023-05-10T13:20:51;17.80;99.90
17845;DHT22;9047;53.486;10.218;2023-05-10T13:23:20;17.80;99.90
17845;DHT22;9047;53.486;10.218;2023-05-10T13:25:46;17.80;99.90
17845;DHT22;9047;53.486;10.218;2023-05-10T13:28:17;17.80;99.90
17845;DHT22;9047;53.486;10.218;2023-05-10T13:30:45;17.90;99.90
17845;DHT22;9047;53.486;10.218;2023-05-10T13:33:11;18.00;99.90
17845;DHT22;9047;53.486;10.218;2023-05-10T13:35:39;18.00;99.90
17845;DHT22;9047;53.486;10.218;2023-05-10T13:38:05;18.00;99.90
17845;DHT22;9047;53.486;10.218;2023-05-10T13:40:33;18.10;99.90
17845;DHT22;9047;53.486;10.218;2023-05-10T13:43:01;18.10;99.90
17845;DHT22;9047;53.486;10.218;2023-05-10T13:45:28;18.00;99.90
17845;DHT22;9047;53.486;10.218;2023-05-10T13:47:56;17.90;99.90
17845;DHT22;9047;53.486;10.218;2023-05-10T13:50:23;18.00;99.90
17845;DHT22;9047;53.486;10.218;2023-05-10T13:52:50;18.00;99.90
17845;DHT22;9047;53.486;10.218;2023-05-10T13:55:17;18.10;99.90
17845;DHT22;9047;53.486;10.218;2023-05-10T13:57:44;18.10;99.90
17845;DHT22;9047;53.486;10.218;2023-05-10T14:00:12;18.20;99.90
17845;DHT22;9047;53.486;10.218;2023-05-10T14:02:39;18.20;99.90
17845;DHT22;9047;53.486;10.218;2023-05-10T14:05:08;18.40;99.90
17845;DHT22;9047;53.486;10.218;2023-05-10T14:07:35;18.50;99.90
17845;DHT22;9047;53.486;10.218;2023-05-10T14:10:02;18.60;99.90
17845;DHT22;9047;53.486;10.218;2023-05-10T14:12:31;18.60;99.90
17845;DHT22;9047;53.486;10.218;2023-05-10T14:14:59;18.60;99.90
17845;DHT22;9047;53.486;10.218;2023-05-10T14:17:29;18.60;99.90
17845;DHT22;9047;53.486;10.218;2023-05-10T14:19:56;18.50;99.90
17845;DHT22;9047;53.486;10.218;2023-05-10T14:22:25;18.60;99.90
17845;DHT22;9047;53.486;10.218;2023-05-10T14:24:51;18.60;99.90
17845;DHT22;9047;53.486;10.218;2023-05-10T14:27:18;18.70;99.90
17845;DHT22;9047;53.486;10.218;2023-05-10T14:29:45;18.70;99.90
17845;DHT22;9047;53.486;10.218;2023-05-10T14:32:12;18.60;99.90
17845;DHT22;9047;53.486;10.218;2023-05-10T14:34:38;18.50;99.90
17845;DHT22;9047;53.486;10.218;2023-05-10T14:37:05;18.50;99.90
17845;DHT22;9047;53.486;10.218;2023-05-10T14:39:35;18.40;99.90
17845;DHT22;9047;53.486;10.218;2023-05-10T14:42:01;18.50;99.90
17845;DHT22;9047;53.486;10.218;2023-05-10T14:44:31;18.50;99.90
17845;DHT22;9047;53.486;10.218;2023-05-10T14:46:57;18.40;99.90
17845;DHT22;9047;53.486;10.218;2023-05-10T14:49:25;18.40;99.90
17845;DHT22;9047;53.486;10.218;2023-05-10T14:51:52;18.40;99.90
17845;DHT22;9047;53.486;10.218;2023-05-10T14:54:19;18.40;99.90
17845;DHT22;9047;53.486;10.218;2023-05-10T14:56:47;18.30;99.90
17845;DHT22;9047;53.486;10.218;2023-05-10T14:59:15;18.30;99.90
17845;DHT22;9047;53.486;10.218;2023-05-10T15:01:42;18.30;99.90
17845;DHT22;9047;53.486;10.218;2023-05-10T15:04:08;18.30;99.90
17845;DHT22;9047;53.486;10.218;2023-05-10T15:06:38;18.40;99.90
17845;DHT22;9047;53.486;10.218;2023-05-10T15:09:06;18.50;99.90
17845;DHT22;9047;53.486;10.218;2023-05-10T15:11:34;18.60;99.90
17845;DHT22;9047;53.486;10.218;2023-05-10T15:14:03;18.70;99.90
17845;DHT22;9047;53.486;10.218;2023-05-10T15:16:29;18.80;99.90
17845;DHT22;9047;53.486;10.218;2023-05-10T15:18:56;18.90;99.90
17845;DHT22;9047;53.486;10.218;2023-05-10T15:21:23;19.10;99.90
17845;DHT22;9047;53.486;10.218;2023-05-10T15:23:50;19.20;99.90
17845;DHT22;9047;53.486;10.218;2023-05-10T15:26:19;19.30;99.90
17845;DHT22;9047;53.486;10.218;2023-05-10T15:28:49;19.30;99.90
17845;DHT22;9047;53.486;10.218;2023-05-10T15:31:17;19.30;99.90
17845;DHT22;9047;53.486;10.218;2023-05-10T15:33:47;19.30;99.90
17845;DHT22;9047;53.486;10.218;2023-05-10T15:36:14;19.30;99.90
17845;DHT22;9047;53.486;10.218;2023-05-10T15:38:43;19.30;99.90
17845;DHT22;9047;53.486;10.218;2023-05-10T15:41:10;19.20;99.90
17845;DHT22;9047;53.486;10.218;2023-05-10T15:43:37;19.30;99.90
17845;DHT22;9047;53.486;10.218;2023-05-10T15:46:04;19.30;99.90
17845;DHT22;9047;53.486;10.218;2023-05-10T15:48:32;19.20;99.90